Santiago Borja

Recruteur en chef - Deportivo Pasto
22 Févr 2028
Mardi
Processus

Personnalité

Adaptabilité (11) Ambition (3) Controverse (20) Loyauté (5) Pression (18) Professionnalisme (1) Sportivité (6) Tempérament (19)

Profil

Style d'entraînement Démocratique
Diplôme National B
Détermination 11
Gestion des joueurs 4
Motivation 4
Discipline 6
Satisfaction professionnelle
100%
Fatigue
0%
Rôle Recruteur en chef
Salaire 22.7K p/s
Contrat 14.03.2028

Performance

Comportement Bon
Efficacité de l'entraînement
36%
Développement des joueurs
35%
Prévention des blessures
25%
Mise en place tactique
60%

Événements récents

Négociation de contrat entamée maintenant
A participé à une réunion de recrutement maintenant
A recommandé une cible de transfert maintenant
A recommandé une cible de transfert maintenant
A recommandé une cible de transfert maintenant
Négociation de contrat entamée 7j
Négociation de contrat entamée 7j
Négociation de contrat entamée 7j

Suivi en cours

107
Joueur Club Statut Capacité Confiance Observé Dernière observation Dernier vote
Jonmi Magunagoitia Eibar Actif 125 / 131 40% 1 28.12.2027 -
Alejandro Iturbe Elche Actif 141 / 145 40% 1 28.12.2027 -
Agustín Lastra Estudiantes Actif 116 / 117 40% 1 28.12.2027 -
Oscar Mejia Valledupar Actif 110 / 102 72% 1 27.12.2027 Approuver
Agustín Olavarría Colon Négociation 97 / 100 40% 1 20.12.2027 -
Nicolás Sumavil Platense Actif 120 / 111 40% 1 20.12.2027 -
Jean America de Cali Actif 127 / 126 40% 1 20.12.2027 -
William Mosquera Barranquilla Actif 88 / 101 72% 1 13.12.2027 Approuver
Joel Canchimbo Barranquilla Perdu 110 / 112 72% 1 01.12.2027 Approuver
Brandon Caicedo Jaguares Actif 109 / 109 30% 1 / 1m 21.07.2027 -
Yeferson Moreno Barranquilla Actif 114 / 112 72% 1 28.06.2027 Approuver
Jerónimo Barrera Fortaleza CEIF Actif 97 / 93 72% 1 14.06.2027 Approuver
Dion Beljo Standard Liege Négociation 131 / 132 66% 1 01.06.2027 Approuver
Diego Martínez Jaguares Actif 121 / 121 30% 1 / 1m 05.05.2027 -
Tyreece Campbell Charlton Athletic Actif 122 / 106 40% 1 28.12.2026 -
Lukáš Červ Viktoria Plzen Actif 133 / 125 40% 1 28.12.2026 -
Víctor Ríos Atlas Actif 107 / 122 40% 1 28.12.2026 -
Jacques Ekomié Wrexham Actif 127 / 142 40% 1 30.11.2026 -
Vivaldo Semedo Watford Actif 114 / 109 40% 3 29.11.2026 -
Alagie Wally Veres Actif 84 / 102 40% 1 29.11.2026 -
Juan Turletti Gimnasia y Tiro Actif 90 / 95 40% 3 28.11.2026 -
Maximo Ingravidi Colón Actif 103 / 116 40% 2 27.11.2026 -
Bogdan Petrović TSC Actif 110 / 101 40% 1 27.11.2026 -
Jean Galindo Imotski Actif 71 / 71 40% 2 26.11.2026 -
Joaquín Gho Argentinos Juniors Actif 121 / 124 40% 2 25.11.2026 -
Alexander Díaz Deportivo Riestra Actif 116 / 123 40% 2 25.11.2026 -
Suleiman Camara Slovan Bratislava Actif 118 / 133 40% 1 25.11.2026 -
Jerónimo Russo Newell's Old Boys Actif 97 / 99 40% 2 23.11.2026 -
Leo Castledine Middlesbrough Actif 137 / 127 40% 3 22.11.2026 -
Aarón Molinas Defensa y Justicia Actif 126 / 133 40% 1 22.11.2026 -
Tomás Sives Hobro Actif 108 / 96 40% 1 22.11.2026 -
Renzo Machado Liverpool Montevideo Actif 111 / 117 40% 3 21.11.2026 -
Jonás Luna Santa Clara Actif 110 / 128 40% 3 21.11.2026 -
Alan Lescano Argentinos Juniors Actif 129 / 136 40% 1 20.11.2026 -
Santiago González Tigre Actif 125 / 132 40% 1 20.11.2026 -
Dom Ballard Leyton Orient Actif 111 / 110 40% 2 17.11.2026 -
Pedro Ramírez Deportivo Riestra Actif 113 / 113 40% 1 16.11.2026 -
Misael Sosa Godoy Cruz Actif 108 / 107 40% 1 16.11.2026 -
Tomás O'Connor Gimnasia y Esgrima Actif 121 / 124 40% 2 15.11.2026 -
Leandro Córdoba Racing Actif 88 / 96 40% 1 13.11.2026 -
Brandon Verón San Lorenzo Actif 79 / 91 40% 1 13.11.2026 -
Dilan Godoy Vélez Actif 102 / 113 40% 2 12.11.2026 -
Kwame Poku Queens Park Rangers Actif 112 / 108 40% 1 12.11.2026 -
Bayron Duarte Queretaro Actif 110 / 127 40% 1 12.11.2026 -
David Kalokoh Ajax Actif 122 / 130 40% 1 11.11.2026 -
Luciano Inverso Rentistas Actif 113 / 108 40% 2 09.11.2026 -
Sebastián Santos Leon Actif 110 / 113 40% 1 09.11.2026 -
Iker Benito Queretaro Actif 117 / 117 40% 1 09.11.2026 -
Agustín Juárez Huddersfield Town Actif 94 / 103 40% 1 09.11.2026 -
Alan Coria Defensa y Justicia Actif 101 / 102 40% 1 04.11.2026 -
Youssoufa Moukoko FC Copenhagen Actif 116 / 117 40% 2 31.10.2026 -
Nicolás Baigorria San Telmo Actif 84 / 94 40% 1 30.10.2026 -
Yastin Cuevas Colo-Colo Actif 100 / 95 40% 3 29.10.2026 -
Enrique Almeida Cerro Largo Actif 94 / 105 40% 2 28.10.2026 -
Taha Ayari AIK Actif 115 / 127 40% 1 28.10.2026 -
Agustín Fernández NK Zavrc Actif 83 / 81 40% 3 27.10.2026 -
Rocco Vata Watford Actif 117 / 131 40% 2 27.10.2026 -
Juan Francisco Rossel Universidad Catolica Actif 98 / 102 40% 2 25.10.2026 -
Archie Goodwin Charlotte Football Club Actif 110 / 121 40% 1 22.10.2026 -
Juan Rocca Gimnasia y Tiro Actif 112 / 99 40% 1 20.10.2026 -
Stefano Moreyra Independiente Rivadavia Actif 123 / 127 40% 1 20.10.2026 -
Nicolás Castro Toluca Actif 132 / 140 40% 1 19.10.2026 -
Martín Campos Ferro Carril Oeste Actif 111 / 123 40% 1 19.10.2026 -
Nikita Iosifov Viktoria Plzen Actif 102 / 125 40% 1 19.10.2026 -
Leonel Flores Boca Juniors Actif 92 / 101 40% 2 15.10.2026 -
Juan David Delgado Chernihiv Actif 69 / 90 40% 1 15.10.2026 -
Lautaro Gutiérrez Belgrano Actif 106 / 103 40% 2 14.10.2026 -
Dylan Cabral Arsenal Actif 101 / 97 40% 2 13.10.2026 -
Brandon Márquez Sarmiento Actif 102 / 96 40% 1 11.10.2026 -
Nikolay Zlatev Cherno More Actif 97 / 101 40% 1 11.10.2026 -
Román Fernández Atlético Tucumán Actif 98 / 107 40% 1 11.10.2026 -
Thiago Ponce Rosario Central Actif 96 / 113 40% 2 09.10.2026 -
Amaury Morales Pumas UNAM Actif 100 / 116 40% 1 09.10.2026 -
Duk Atlas Actif 114 / 129 40% 1 07.10.2026 -
Dilan Gerez River Plate Actif 94 / 91 40% 2 04.10.2026 -
Ezekiel Kwame Alladoh Philadelphia Union Actif 100 / 112 40% 3 29.09.2026 -
Felipe Serrés Wanderers Actif 98 / 96 40% 1 25.09.2026 -
Thiago Yfran Temperley Actif 88 / 103 40% 2 24.09.2026 -
Bruno Morales Cerro Actif 87 / 96 40% 2 22.09.2026 -
Gael Arturo Álvarez Pachuca Actif 79 / 84 40% 1 17.09.2026 -
Jonathan Ledesma Platense Actif 93 / 87 40% 2 16.09.2026 -
Oscar Cáceres Sportivo Luqueno Actif 87 / 90 40% 1 16.09.2026 -
Alan Cisnero Shukura Actif 104 / 87 40% 2 14.09.2026 -
Valentino Chiarotti Unión de Santa Fe Actif 74 / 94 40% 1 14.09.2026 -
Lautaro Cipollone Defensores Unidos Actif 87 / 80 40% 2 10.09.2026 -
Bruno Hernández Cerro Largo Actif 98 / 108 40% 1 10.09.2026 -
Ramiro Pral Huracán Actif 77 / 94 40% 2 09.09.2026 -
Francisco Robinson San Martín Actif 89 / 99 40% 2 08.09.2026 -
Martín Astudillo Racing Actif 74 / 99 40% 1 07.09.2026 -
Kristian Fletcher FC Cincinnati Actif 108 / 116 40% 1 07.09.2026 -
Zahid Muñoz Morelia Actif 91 / 98 40% 1 07.09.2026 -
Alejo Ross Racing Actif 76 / 89 40% 1 30.08.2026 -
Alejandro Garay Independiente Actif 84 / 97 40% 1 25.08.2026 -
Franco Pastrana Defensa y Justicia Actif 83 / 103 40% 1 23.08.2026 -
Lucas Villagra Barracas Central Actif 74 / 78 40% 1 22.08.2026 -
Tomás Romero Unión de Santa Fe Actif 94 / 100 40% 1 21.08.2026 -
Thiago Perugini San Lorenzo Actif 95 / 105 40% 1 15.08.2026 -
Tobías Ganduglia Independiente Rivadavia Actif 98 / 106 40% 1 12.08.2026 -
Matías Medina Sportivo Luqueno Actif 90 / 99 40% 1 10.08.2026 -
Tobías Quinteros Almirante Brown Actif 83 / 92 40% 1 08.08.2026 -
Joaquín Toranzo Sarmiento Actif 78 / 92 40% 1 08.08.2026 -
Matías Dufour Sportivo Trinidense Actif 105 / 113 40% 1 04.08.2026 -
Jorge Hernández Tijuana Actif 110 / 121 40% 1 03.08.2026 -
Fernando Tapia Club America Actif 124 / 128 40% 1 03.08.2026 -
Emiliano Álvarez Progreso Actif 116 / 127 40% 1 01.08.2026 -
Pablo Monroy Pumas UNAM Actif 125 / 101 40% 1 01.08.2026 -
Omar Campos Cruz Azul Actif 110 / 138 40% 1 01.08.2026 -